Time;durP1;ratioP1;P1;durP2;ratioP2;P2;SDS_P1;SDS_P2;PMS_P1;PMS_P2;Temp;Humidity;BMP_temperature;BMP_pressure;BME280_temperature;BME280_humidity;BME280_pressure;Samples;Min_cycle;Max_cycle;Signal;HPM_P1;HPM_P2
2023/01/07 00:01:48;;;;;;;12.65;6.70;;;18.90;55.50;;;;;;4982388;28;20196;-79
2023/01/07 00:04:16;;;;;;;11.63;5.90;;;18.90;55.50;;;;;;4998563;28;20207;-79
2023/01/07 00:06:44;;;;;;;11.35;5.75;;;18.90;55.50;;;;;;4998346;28;20197;-79
2023/01/07 00:09:13;;;;;;;13.75;5.97;;;18.80;55.50;;;;;;4999262;28;20307;-79
2023/01/07 00:11:40;;;;;;;11.48;6.18;;;18.80;55.40;;;;;;5000200;28;20244;-79
2023/01/07 00:14:09;;;;;;;13.73;6.53;;;18.80;55.50;;;;;;4998749;28;20556;-79
2023/01/07 00:16:37;;;;;;;10.32;5.60;;;18.80;55.70;;;;;;4998584;28;20239;-79
2023/01/07 00:19:06;;;;;;;9.43;5.55;;;18.80;55.50;;;;;;4998449;28;20605;-79
2023/01/07 00:21:33;;;;;;;11.90;5.80;;;18.80;55.60;;;;;;4982729;28;20201;-79
2023/01/07 00:24:02;;;;;;;10.32;5.85;;;18.80;55.70;;;;;;4998217;28;20193;-79
2023/01/07 00:26:30;;;;;;;10.18;5.60;;;18.70;55.50;;;;;;4998348;28;20221;-80
2023/01/07 00:28:57;;;;;;;11.20;5.50;;;18.70;55.50;;;;;;4998207;28;20706;-79
2023/01/07 00:31:25;;;;;;;12.73;5.93;;;18.70;55.60;;;;;;4997823;28;20694;-79
2023/01/07 00:34:05;;;;;;;12.45;6.03;;;18.70;55.60;;;;;;4997940;28;20197;-79
2023/01/07 00:36:36;;;;;;;11.70;6.03;;;18.70;55.60;;;;;;4998539;28;20199;-80
2023/01/07 00:39:04;;;;;;;10.77;6.22;;;18.70;55.50;;;;;;4997917;28;20220;-79
2023/01/07 00:41:31;;;;;;;10.30;5.53;;;18.70;55.70;;;;;;4997669;28;20204;-79
2023/01/07 00:43:58;;;;;;;10.88;6.40;;;18.60;55.60;;;;;;4998209;28;20212;-80
2023/01/07 00:46:26;;;;;;;10.68;5.15;;;18.60;55.70;;;;;;4997908;28;20222;-79
2023/01/07 00:48:53;;;;;;;11.00;5.68;;;18.60;55.50;;;;;;4997604;28;20224;-79
2023/01/07 00:51:20;;;;;;;12.15;5.40;;;18.60;55.50;;;;;;4997736;28;20207;-79
2023/01/07 00:53:48;;;;;;;11.07;5.22;;;18.60;55.60;;;;;;4997786;28;20200;-79
2023/01/07 00:56:17;;;;;;;11.93;5.63;;;18.60;55.60;;;;;;4998133;28;20196;-79
2023/01/07 00:58:44;;;;;;;11.50;5.68;;;18.60;55.70;;;;;;4998021;28;20239;-80
2023/01/07 01:01:12;;;;;;;10.27;5.25;;;18.60;55.60;;;;;;4998333;28;20227;-79
2023/01/07 01:03:39;;;;;;;11.20;5.65;;;18.60;55.60;;;;;;4997430;28;20201;-79
2023/01/07 01:06:08;;;;;;;9.93;5.60;;;18.60;55.60;;;;;;4981792;28;20216;-79
2023/01/07 01:08:34;;;;;;;7.68;4.63;;;18.60;55.70;;;;;;4997211;28;20228;-79
2023/01/07 01:11:07;;;;;;;10.70;5.30;;;18.50;55.50;;;;;;4997628;28;20220;-79
2023/01/07 01:13:34;;;;;;;9.73;5.28;;;18.50;55.50;;;;;;5013955;28;20211;-79
2023/01/07 01:16:01;;;;;;;12.55;5.43;;;18.50;55.60;;;;;;4997811;28;20207;-79
2023/01/07 01:18:29;;;;;;;10.10;5.30;;;18.50;55.70;;;;;;4997480;28;20235;-79
2023/01/07 01:20:56;;;;;;;8.43;5.20;;;18.50;55.70;;;;;;4997423;28;20228;-79
2023/01/07 01:23:23;;;;;;;8.05;4.90;;;18.50;55.60;;;;;;4981260;28;20193;-79
2023/01/07 01:25:51;;;;;;;9.48;5.18;;;18.50;55.70;;;;;;4997740;28;20291;-80
2023/01/07 01:28:20;;;;;;;8.48;5.18;;;18.50;55.70;;;;;;4981371;28;20278;-79
2023/01/07 01:30:54;;;;;;;10.93;5.45;;;18.50;55.70;;;;;;4997795;28;20196;-79
2023/01/07 01:33:22;;;;;;;8.88;4.78;;;18.50;55.70;;;;;;4998514;28;20208;-79
2023/01/07 01:35:49;;;;;;;8.00;4.88;;;18.50;55.70;;;;;;4997695;28;20197;-79
2023/01/07 01:38:17;;;;;;;7.50;4.32;;;18.50;55.70;;;;;;4997858;28;20221;-79
2023/01/07 01:40:44;;;;;;;8.57;4.88;;;18.40;55.60;;;;;;4997617;28;20255;-79
2023/01/07 01:43:27;;;;;;;10.43;5.22;;;18.40;55.60;;;;;;4998123;28;20236;-79
2023/01/07 01:45:54;;;;;;;10.43;5.35;;;18.40;55.60;;;;;;4999417;28;20243;-79
2023/01/07 01:48:22;;;;;;;9.63;5.00;;;18.40;55.60;;;;;;4999309;28;20243;-79
2023/01/07 01:50:49;;;;;;;10.35;5.30;;;18.40;55.70;;;;;;4998908;28;20224;-79
2023/01/07 01:53:18;;;;;;;7.65;4.43;;;18.40;55.70;;;;;;4998541;28;20204;-79
2023/01/07 01:55:48;;;;;;;7.50;4.78;;;18.40;55.70;;;;;;4998920;28;20200;-79
2023/01/07 01:58:16;;;;;;;9.85;4.88;;;18.40;55.80;;;;;;4997932;28;20308;-79
2023/01/07 02:00:45;;;;;;;7.00;4.45;;;18.40;55.90;;;;;;4997950;28;20211;-79
2023/01/07 02:03:14;;;;;;;6.22;3.88;;;18.30;55.70;;;;;;4999112;28;20280;-78
2023/01/07 02:06:02;;;;;;;7.78;4.35;;;18.40;55.80;;;;;;5003019;28;20211;-79
2023/01/07 02:08:30;;;;;;;8.95;4.47;;;18.30;55.70;;;;;;4999570;28;20316;-78
2023/01/07 02:11:09;;;;;;;8.50;4.43;;;18.30;55.70;;;;;;4999829;28;20532;-79
2023/01/07 02:13:59;;;;;;;6.13;3.83;;;18.30;55.90;;;;;;4998256;28;20188;-79
2023/01/07 02:16:31;;;;;;;7.95;4.22;;;18.30;55.80;;;;;;4997429;28;20658;-79
2023/01/07 02:19:13;;;;;;;8.90;4.53;;;18.30;55.70;;;;;;4997295;28;20228;-79
2023/01/07 02:21:45;;;;;;;8.52;4.10;;;18.30;55.80;;;;;;4998382;28;20231;-79
2023/01/07 02:24:57;;;;;;;6.90;4.10;;;18.30;55.70;;;;;;5002440;28;20201;-79
2023/01/07 02:27:34;;;;;;;8.38;4.47;;;18.30;55.90;;;;;;4968944;28;20201;-79
2023/01/07 02:30:31;;;;;;;7.50;4.60;;;18.30;55.90;;;;;;5001823;28;20545;-79
2023/01/07 02:33:20;;;;;;;6.88;4.05;;;18.30;55.90;;;;;;5000588;28;20243;-79
2023/01/07 02:36:10;;;;;;;8.20;4.03;;;18.30;55.80;;;;;;5001281;28;20280;-79
2023/01/07 02:38:42;;;;;;;7.45;4.25;;;18.20;55.80;;;;;;4985995;28;20212;-79
2023/01/07 02:41:14;;;;;;;7.40;3.88;;;18.20;55.90;;;;;;5002437;28;20617;-79
2023/01/07 02:43:45;;;;;;;6.78;4.35;;;18.20;55.70;;;;;;5002016;28;20296;-79
2023/01/07 02:46:16;;;;;;;6.47;4.10;;;18.20;55.90;;;;;;5002817;28;20595;-79
2023/01/07 02:48:45;;;;;;;7.95;4.25;;;18.20;55.70;;;;;;5000487;28;20311;-79
2023/01/07 02:51:13;;;;;;;6.88;4.05;;;18.20;55.80;;;;;;5000019;28;20280;-79
2023/01/07 02:53:40;;;;;;;7.72;3.85;;;18.20;55.70;;;;;;4999950;28;20204;-79
2023/01/07 02:56:14;;;;;;;6.75;3.72;;;18.20;55.70;;;;;;4999846;28;20284;-79
2023/01/07 02:59:03;;;;;;;5.75;3.60;;;18.20;55.90;;;;;;4999956;28;20789;-79
2023/01/07 03:01:51;;;;;;;6.57;4.07;;;18.20;55.80;;;;;;5000369;28;20287;-80
2023/01/07 03:04:27;;;;;;;8.10;3.95;;;18.20;55.70;;;;;;5000559;28;20604;-80
2023/01/07 03:07:01;;;;;;;5.82;3.78;;;18.20;55.90;;;;;;5000680;28;20325;-79
2023/01/07 03:09:31;;;;;;;7.18;3.97;;;18.20;55.70;;;;;;4999153;28;20235;-79
2023/01/07 03:12:00;;;;;;;7.32;4.13;;;18.20;55.70;;;;;;4983795;28;20562;-79
2023/01/07 03:14:31;;;;;;;6.60;3.72;;;18.10;55.70;;;;;;4999245;28;20708;-79
2023/01/07 03:17:00;;;;;;;8.02;4.10;;;18.20;55.70;;;;;;4999270;28;20193;-79
2023/01/07 03:19:30;;;;;;;7.43;3.67;;;18.10;55.70;;;;;;4999371;28;20599;-80
2023/01/07 03:21:59;;;;;;;5.63;3.88;;;18.10;55.80;;;;;;4999225;28;20655;-79
2023/01/07 03:24:26;;;;;;;5.40;3.50;;;18.10;55.70;;;;;;4999450;28;20205;-79
2023/01/07 03:26:55;;;;;;;5.65;3.60;;;18.10;55.90;;;;;;4999043;28;20588;-79
2023/01/07 03:29:22;;;;;;;9.38;4.30;;;18.10;55.80;;;;;;4999392;28;20730;-79
2023/01/07 03:31:53;;;;;;;6.28;3.65;;;18.20;55.80;;;;;;4999154;28;20323;-79
2023/01/07 03:34:22;;;;;;;5.70;3.83;;;18.10;55.60;;;;;;4998351;28;20200;-79
2023/01/07 03:36:57;;;;;;;5.18;3.40;;;18.10;55.70;;;;;;4999104;28;20243;-79
2023/01/07 03:39:26;;;;;;;5.80;3.50;;;18.10;55.60;;;;;;4984358;28;20282;-79
2023/01/07 03:44:39;;;;;;;5.38;3.58;;;18.10;55.70;;;;;;4999840;28;20185;-79
2023/01/07 03:47:06;;;;;;;6.22;3.70;;;18.10;55.60;;;;;;4982836;28;20209;-79
2023/01/07 03:49:33;;;;;;;5.75;3.95;;;18.10;55.50;;;;;;4999065;28;20784;-79
2023/01/07 03:52:02;;;;;;;5.82;3.75;;;18.10;55.30;;;;;;4998800;28;20204;-79
2023/01/07 03:54:29;;;;;;;6.57;3.67;;;18.10;55.50;;;;;;4999013;28;20726;-79
2023/01/07 03:56:56;;;;;;;5.00;3.35;;;18.00;55.40;;;;;;4982922;28;20567;-79
2023/01/07 03:59:23;;;;;;;5.68;3.53;;;18.00;55.50;;;;;;4999154;28;20212;-79
2023/01/07 04:01:50;;;;;;;5.55;3.45;;;18.00;55.50;;;;;;4999899;28;20196;-79
2023/01/07 04:04:18;;;;;;;5.05;3.10;;;18.00;55.60;;;;;;4998803;28;20236;-79
2023/01/07 04:06:45;;;;;;;4.93;3.33;;;18.00;55.50;;;;;;4998990;28;20217;-79
2023/01/07 04:09:17;;;;;;;4.75;3.10;;;18.00;55.50;;;;;;4998660;28;20591;-79
2023/01/07 04:11:45;;;;;;;5.40;3.00;;;18.00;55.50;;;;;;4998898;28;20204;-79
2023/01/07 04:14:12;;;;;;;5.07;3.40;;;18.00;55.60;;;;;;4998966;28;20204;-79
2023/01/07 04:16:39;;;;;;;4.43;3.30;;;18.10;55.60;;;;;;4998734;28;20193;-79
2023/01/07 04:19:07;;;;;;;6.05;3.20;;;18.00;55.60;;;;;;4999274;28;20227;-79
2023/01/07 04:21:35;;;;;;;4.78;3.03;;;18.10;55.70;;;;;;4999212;28;20199;-79
2023/01/07 04:24:05;;;;;;;5.25;3.40;;;18.00;55.50;;;;;;5000069;28;20224;-79
2023/01/07 04:26:34;;;;;;;5.05;3.30;;;18.00;55.70;;;;;;4999746;28;20335;-79
2023/01/07 04:29:01;;;;;;;5.50;3.75;;;18.00;55.80;;;;;;5000411;28;20703;-79
2023/01/07 04:31:29;;;;;;;5.68;3.50;;;18.00;55.80;;;;;;5000524;28;20255;-79
2023/01/07 04:33:57;;;;;;;5.47;3.17;;;18.00;55.70;;;;;;5000511;28;20220;-79
2023/01/07 04:36:25;;;;;;;4.85;3.00;;;18.10;55.80;;;;;;5000535;28;20566;-79
2023/01/07 04:38:52;;;;;;;5.78;3.05;;;18.10;55.80;;;;;;5000817;28;20217;-79
2023/01/07 04:41:19;;;;;;;5.93;3.10;;;18.10;55.70;;;;;;5001136;28;20203;-79
2023/01/07 04:43:48;;;;;;;4.13;3.00;;;18.00;55.70;;;;;;4999590;28;20725;-79
2023/01/07 04:46:15;;;;;;;7.63;3.40;;;18.10;55.70;;;;;;4998624;28;20216;-79
2023/01/07 04:48:43;;;;;;;4.50;3.15;;;18.10;55.60;;;;;;4997913;28;20228;-79
2023/01/07 04:51:09;;;;;;;5.50;3.20;;;18.20;55.60;;;;;;4998455;28;20218;-80
2023/01/07 04:53:37;;;;;;;4.68;2.90;;;18.20;55.40;;;;;;4982188;28;20200;-79
2023/01/07 04:56:06;;;;;;;4.05;2.90;;;18.20;55.50;;;;;;4998144;28;20197;-79
2023/01/07 04:58:33;;;;;;;4.82;3.10;;;18.20;55.40;;;;;;4998086;28;20311;-79
2023/01/07 05:01:03;;;;;;;7.95;3.67;;;18.20;55.30;;;;;;4997528;28;20200;-79
2023/01/07 05:03:33;;;;;;;5.35;2.83;;;18.20;55.20;;;;;;4997947;28;20569;-79
2023/01/07 05:06:00;;;;;;;4.03;2.95;;;18.20;55.20;;;;;;4998240;28;20213;-79
2023/01/07 05:08:29;;;;;;;5.63;3.00;;;18.20;55.30;;;;;;4997935;28;20630;-79
2023/01/07 05:10:56;;;;;;;4.03;2.97;;;18.20;55.10;;;;;;4998726;28;20200;-79
2023/01/07 05:13:24;;;;;;;3.95;2.88;;;18.20;55.10;;;;;;4997511;28;20203;-79
2023/01/07 05:15:52;;;;;;;5.15;3.03;;;18.20;55.00;;;;;;4998461;28;20224;-79
2023/01/07 05:18:21;;;;;;;4.40;2.67;;;18.20;55.00;;;;;;4998273;28;20307;-79
2023/01/07 05:20:48;;;;;;;3.42;2.58;;;18.30;55.00;;;;;;4998130;28;20568;-79
2023/01/07 05:23:15;;;;;;;5.00;2.78;;;18.20;54.90;;;;;;4997692;28;20203;-79
2023/01/07 05:25:44;;;;;;;4.40;2.80;;;18.20;54.90;;;;;;4997377;28;20220;-80
2023/01/07 05:28:12;;;;;;;3.00;2.70;;;18.30;54.90;;;;;;4997356;28;20582;-80
2023/01/07 05:30:41;;;;;;;4.40;2.70;;;18.30;54.90;;;;;;4997700;28;20627;-80
2023/01/07 05:33:08;;;;;;;4.70;2.65;;;18.30;54.90;;;;;;4997221;28;20283;-80
2023/01/07 05:35:37;;;;;;;5.85;2.83;;;18.30;54.90;;;;;;4997035;28;20200;-79
2023/01/07 05:38:05;;;;;;;3.83;2.83;;;18.30;54.80;;;;;;4997014;28;20287;-80
2023/01/07 05:40:32;;;;;;;4.65;2.75;;;18.20;54.80;;;;;;4997066;28;20571;-80
2023/01/07 05:42:59;;;;;;;3.67;2.92;;;18.30;54.80;;;;;;4981222;28;20212;-80
2023/01/07 05:45:28;;;;;;;3.92;2.33;;;18.30;55.40;;;;;;4996716;28;20197;-80
2023/01/07 05:47:55;;;;;;;4.63;2.47;;;18.30;55.10;;;;;;4996235;28;20244;-80
2023/01/07 05:50:22;;;;;;;7.47;2.50;;;18.30;54.90;;;;;;4996427;28;20219;-80
2023/01/07 05:52:52;;;;;;;3.75;2.55;;;18.30;55.30;;;;;;4996866;28;20193;-80
2023/01/07 05:55:19;;;;;;;6.97;2.72;;;18.30;55.80;;;;;;4996457;28;20258;-79
2023/01/07 05:57:46;;;;;;;5.97;2.67;;;18.30;56.60;;;;;;5015163;28;20188;-79
2023/01/07 06:00:14;;;;;;;4.18;2.55;;;18.30;56.90;;;;;;5001028;28;20205;-79
2023/01/07 06:02:42;;;;;;;5.00;2.70;;;18.30;56.90;;;;;;5000482;28;20738;-79
2023/01/07 06:05:09;;;;;;;3.75;2.40;;;18.40;57.30;;;;;;4984577;28;20251;-79
2023/01/07 06:07:36;;;;;;;3.13;2.40;;;18.40;56.60;;;;;;4999790;28;20671;-79
2023/01/07 06:10:05;;;;;;;3.47;2.70;;;18.40;56.60;;;;;;5001710;28;20243;-78
2023/01/07 06:12:34;;;;;;;4.22;2.60;;;18.50;56.50;;;;;;5002298;28;20295;-79
2023/01/07 06:15:01;;;;;;;3.13;2.47;;;18.60;56.70;;;;;;5002283;28;20227;-79
2023/01/07 06:17:28;;;;;;;4.07;2.58;;;18.50;56.80;;;;;;5001904;28;20201;-80
2023/01/07 06:19:55;;;;;;;3.08;2.47;;;18.60;56.60;;;;;;5001658;28;20201;-79
2023/01/07 06:22:22;;;;;;;3.17;2.40;;;18.60;56.30;;;;;;5001252;28;20197;-79
2023/01/07 06:24:49;;;;;;;3.45;2.40;;;18.60;55.70;;;;;;4984133;28;20220;-79
2023/01/07 06:27:17;;;;;;;3.33;2.90;;;18.70;55.50;;;;;;5001096;28;20212;-79
2023/01/07 06:29:44;;;;;;;4.55;2.28;;;18.70;55.30;;;;;;5001175;28;20227;-78
2023/01/07 06:32:11;;;;;;;2.75;2.15;;;18.70;55.30;;;;;;5000095;28;20197;-79
2023/01/07 06:34:38;;;;;;;3.25;2.15;;;18.60;55.20;;;;;;5001441;28;20211;-79
2023/01/07 06:37:05;;;;;;;2.35;2.10;;;18.60;55.30;;;;;;5001947;28;20251;-79
2023/01/07 06:39:32;;;;;;;2.67;2.17;;;18.60;55.20;;;;;;5000701;28;20299;-79
2023/01/07 06:42:00;;;;;;;3.03;2.15;;;18.60;55.00;;;;;;5000716;28;20259;-79
2023/01/07 06:44:29;;;;;;;2.97;2.13;;;18.60;54.80;;;;;;5000405;28;20208;-80
2023/01/07 06:46:56;;;;;;;3.72;2.40;;;18.60;55.00;;;;;;5003151;28;20212;-80
2023/01/07 06:49:23;;;;;;;5.10;2.15;;;18.50;54.80;;;;;;5003439;28;20220;-78
2023/01/07 06:51:50;;;;;;;3.25;2.05;;;18.50;54.60;;;;;;5002166;28;20293;-78
2023/01/07 06:54:17;;;;;;;2.65;2.13;;;18.50;54.70;;;;;;5000458;28;20201;-78
2023/01/07 06:56:44;;;;;;;3.53;2.20;;;18.50;54.80;;;;;;4999884;28;20193;-79
2023/01/07 06:59:12;;;;;;;4.22;2.05;;;18.50;54.80;;;;;;5000399;28;20220;-78
2023/01/07 07:01:40;;;;;;;3.03;2.13;;;18.50;54.70;;;;;;4999756;28;20210;-78
2023/01/07 07:04:07;;;;;;;2.85;1.88;;;18.50;54.70;;;;;;5001285;28;20619;-78
2023/01/07 07:06:34;;;;;;;2.05;1.83;;;18.50;54.50;;;;;;5001671;28;20197;-79
2023/01/07 07:09:01;;;;;;;3.03;1.98;;;18.50;54.30;;;;;;5001732;28;20233;-79
2023/01/07 07:11:29;;;;;;;2.58;1.90;;;18.60;54.20;;;;;;4998982;28;20204;-79
2023/01/07 07:13:56;;;;;;;3.67;1.95;;;18.60;54.10;;;;;;4998746;28;20204;-79
2023/01/07 07:16:23;;;;;;;3.92;2.00;;;18.50;54.10;;;;;;4999418;28;20207;-80
2023/01/07 07:18:52;;;;;;;2.47;1.80;;;18.60;54.20;;;;;;4998594;28;20259;-80
2023/01/07 07:21:19;;;;;;;2.30;2.05;;;18.50;54.10;;;;;;4998598;28;20573;-79
2023/01/07 07:23:46;;;;;;;2.63;1.85;;;18.50;54.00;;;;;;4998570;28;20655;-79
2023/01/07 07:26:13;;;;;;;3.38;2.17;;;18.60;54.00;;;;;;4984076;28;20251;-80
2023/01/07 07:28:41;;;;;;;2.22;1.75;;;18.60;54.20;;;;;;5000789;28;20754;-79
2023/01/07 07:31:09;;;;;;;3.17;2.10;;;18.50;53.90;;;;;;4999137;28;20203;-79
2023/01/07 07:33:36;;;;;;;2.60;1.90;;;18.50;53.90;;;;;;4998413;28;20246;-79
2023/01/07 07:36:04;;;;;;;2.00;1.73;;;18.50;53.80;;;;;;4998569;28;20256;-80
2023/01/07 07:38:31;;;;;;;2.15;1.80;;;18.50;53.80;;;;;;4998235;28;20209;-80
2023/01/07 07:41:00;;;;;;;3.00;2.08;;;18.50;53.80;;;;;;4998709;28;20189;-80
2023/01/07 07:43:27;;;;;;;2.95;1.77;;;18.50;53.70;;;;;;4998244;28;20295;-80
2023/01/07 07:45:54;;;;;;;2.47;1.75;;;18.50;53.80;;;;;;4998862;28;20243;-79
2023/01/07 07:48:21;;;;;;;3.08;1.80;;;18.50;53.80;;;;;;4998147;28;20239;-80
2023/01/07 07:50:50;;;;;;;3.42;2.05;;;18.50;54.00;;;;;;4997941;28;20632;-79
2023/01/07 07:53:19;;;;;;;2.28;1.92;;;18.50;53.80;;;;;;4997920;28;20204;-80
2023/01/07 07:55:46;;;;;;;1.70;1.60;;;18.50;53.90;;;;;;4998103;28;20196;-79
2023/01/07 07:58:13;;;;;;;2.70;1.88;;;18.50;54.10;;;;;;4997862;28;20220;-79
2023/01/07 08:00:40;;;;;;;1.85;1.70;;;18.50;53.90;;;;;;4997809;28;20259;-79
2023/01/07 08:03:07;;;;;;;2.33;1.63;;;18.50;53.90;;;;;;4997969;28;20236;-79
2023/01/07 08:05:34;;;;;;;3.20;2.10;;;18.50;54.00;;;;;;4998240;28;20192;-79
2023/01/07 08:08:01;;;;;;;2.03;1.70;;;18.50;54.00;;;;;;4997929;28;20235;-79
2023/01/07 08:10:31;;;;;;;2.10;1.85;;;18.50;53.80;;;;;;4998149;28;20205;-79
2023/01/07 08:12:58;;;;;;;1.67;1.58;;;18.50;54.00;;;;;;4998415;28;20200;-80
2023/01/07 08:15:25;;;;;;;2.53;1.90;;;18.50;53.90;;;;;;4997709;28;20205;-79
2023/01/07 08:17:58;;;;;;;2.22;1.77;;;18.50;53.90;;;;;;4998185;28;20209;-79
2023/01/07 08:20:25;;;;;;;2.45;1.60;;;18.50;53.90;;;;;;4998624;28;20211;-79
2023/01/07 08:22:52;;;;;;;2.10;1.65;;;18.50;53.80;;;;;;4981444;28;20659;-79
2023/01/07 08:25:19;;;;;;;2.45;1.70;;;18.50;54.00;;;;;;4997530;28;20197;-80
2023/01/07 08:27:48;;;;;;;2.03;1.50;;;18.50;53.80;;;;;;4997262;28;20263;-79
2023/01/07 08:30:17;;;;;;;2.80;1.60;;;18.60;53.70;;;;;;4981924;28;20561;-79
2023/01/07 08:32:44;;;;;;;1.52;1.42;;;18.50;53.40;;;;;;4997359;28;20200;-79
2023/01/07 08:35:11;;;;;;;2.35;2.00;;;18.50;53.50;;;;;;4997466;28;20220;-79
2023/01/07 08:37:38;;;;;;;2.33;1.70;;;18.60;54.30;;;;;;4997598;28;20276;-79
2023/01/07 08:40:06;;;;;;;1.70;1.42;;;18.60;53.70;;;;;;4998480;28;20201;-80
2023/01/07 08:42:33;;;;;;;1.73;1.63;;;18.50;53.40;;;;;;4997740;28;20668;-80
2023/01/07 08:45:02;;;;;;;1.45;1.35;;;18.60;53.50;;;;;;4997369;28;20211;-80
2023/01/07 08:47:29;;;;;;;1.98;1.60;;;18.60;53.40;;;;;;4997393;28;20213;-80
2023/01/07 08:49:56;;;;;;;3.00;1.73;;;18.70;53.50;;;;;;4981150;28;20572;-80
2023/01/07 08:52:23;;;;;;;1.30;1.20;;;18.70;53.50;;;;;;4997118;28;20698;-80
2023/01/07 08:54:50;;;;;;;1.58;1.48;;;18.80;53.20;;;;;;4997007;28;20208;-80
2023/01/07 08:57:17;;;;;;;1.83;1.63;;;18.80;53.00;;;;;;4997148;28;20199;-80
2023/01/07 08:59:44;;;;;;;2.92;1.60;;;18.80;52.90;;;;;;4997392;28;20275;-80
2023/01/07 09:02:15;;;;;;;1.88;1.30;;;18.90;52.90;;;;;;4997881;28;20200;-80
2023/01/07 09:04:42;;;;;;;1.48;1.38;;;18.90;53.10;;;;;;4997828;28;20197;-80
2023/01/07 09:07:09;;;;;;;1.92;1.60;;;19.00;52.70;;;;;;4997081;28;20208;-80
2023/01/07 09:09:36;;;;;;;1.95;1.50;;;19.00;52.90;;;;;;4997355;28;20239;-80
2023/01/07 09:12:03;;;;;;;2.13;1.50;;;19.10;52.70;;;;;;4996923;28;20200;-80
2023/01/07 09:14:30;;;;;;;2.13;1.50;;;19.10;52.70;;;;;;4996764;28;20568;-80
2023/01/07 09:16:58;;;;;;;2.10;1.70;;;19.10;52.40;;;;;;4996679;28;20205;-80
2023/01/07 09:19:26;;;;;;;2.50;1.73;;;19.20;52.40;;;;;;4996733;28;20227;-79
2023/01/07 09:21:54;;;;;;;1.90;1.65;;;19.20;52.20;;;;;;4997052;28;20197;-80
2023/01/07 09:24:21;;;;;;;1.67;1.58;;;19.20;52.20;;;;;;4996927;28;20659;-79
2023/01/07 09:26:48;;;;;;;2.13;1.77;;;19.20;52.10;;;;;;4997013;28;20204;-80
2023/01/07 09:29:15;;;;;;;2.13;1.77;;;19.20;51.80;;;;;;4996649;28;20231;-80
2023/01/07 09:31:42;;;;;;;1.70;1.60;;;19.20;52.00;;;;;;4997419;28;20193;-80
2023/01/07 09:34:09;;;;;;;1.60;1.50;;;19.20;52.00;;;;;;5000726;28;20201;-80
2023/01/07 09:36:37;;;;;;;1.75;1.65;;;19.20;52.10;;;;;;5000619;28;20201;-79
2023/01/07 09:39:04;;;;;;;1.77;1.67;;;19.20;51.80;;;;;;5000669;28;20220;-79
2023/01/07 09:41:35;;;;;;;1.80;1.67;;;19.30;52.10;;;;;;5000695;28;20196;-79
2023/01/07 09:44:08;;;;;;;2.13;1.60;;;19.30;52.00;;;;;;5001941;28;20660;-79
2023/01/07 09:46:35;;;;;;;1.50;1.40;;;19.30;51.80;;;;;;4985415;28;20211;-79
2023/01/07 09:49:03;;;;;;;1.63;1.52;;;19.30;51.70;;;;;;5000809;28;20228;-79
2023/01/07 09:51:33;;;;;;;2.20;2.00;;;19.30;51.60;;;;;;5001690;28;20197;-79
2023/01/07 09:54:03;;;;;;;1.60;1.50;;;19.30;51.60;;;;;;5001725;28;20232;-79
2023/01/07 09:56:31;;;;;;;1.88;1.60;;;19.40;51.80;;;;;;5000735;28;20200;-79
2023/01/07 09:58:59;;;;;;;1.90;1.80;;;19.40;51.70;;;;;;5002087;28;20216;-80
2023/01/07 10:01:27;;;;;;;1.98;1.70;;;19.40;51.70;;;;;;5018671;28;20217;-80
2023/01/07 10:04:01;;;;;;;2.20;2.00;;;19.40;52.10;;;;;;4985119;28;20207;-80
2023/01/07 10:06:32;;;;;;;2.40;2.10;;;19.40;51.80;;;;;;5018086;28;20608;-80
2023/01/07 10:09:06;;;;;;;2.58;1.90;;;19.40;51.80;;;;;;5002143;28;20233;-80
2023/01/07 10:11:40;;;;;;;1.90;1.80;;;19.40;51.90;;;;;;5000215;28;20200;-80
2023/01/07 10:14:43;;;;;;;1.70;1.50;;;19.40;51.40;;;;;;5000138;28;20235;-80
2023/01/07 10:17:18;;;;;;;2.00;1.80;;;19.40;52.00;;;;;;4999933;28;20201;-80
2023/01/07 10:19:47;;;;;;;2.05;1.90;;;19.50;52.00;;;;;;4999839;28;20212;-77
2023/01/07 10:22:18;;;;;;;2.00;1.80;;;19.50;52.00;;;;;;5000655;28;20204;-79
2023/01/07 10:24:48;;;;;;;1.88;1.77;;;19.50;51.60;;;;;;4983613;28;20193;-80
2023/01/07 10:27:16;;;;;;;2.28;2.00;;;19.50;51.60;;;;;;4999681;28;20576;-77
2023/01/07 10:29:44;;;;;;;2.40;2.03;;;19.50;50.90;;;;;;4999403;28;20225;-77
2023/01/07 10:32:13;;;;;;;1.80;1.70;;;19.50;51.20;;;;;;4999628;28;20200;-78
2023/01/07 10:34:43;;;;;;;2.50;2.13;;;19.50;51.10;;;;;;4999317;28;20206;-77
2023/01/07 10:37:14;;;;;;;2.75;2.10;;;19.50;51.40;;;;;;4999370;28;20727;-77
2023/01/07 10:39:47;;;;;;;1.88;1.77;;;19.50;51.20;;;;;;4999345;28;20220;-77
2023/01/07 10:42:17;;;;;;;2.22;1.83;;;19.50;51.30;;;;;;4998991;28;20284;-77
2023/01/07 10:45:14;;;;;;;2.20;2.00;;;19.50;51.60;;;;;;4999504;28;20566;-79
2023/01/07 10:47:50;;;;;;;1.75;1.63;;;19.50;51.20;;;;;;4991337;28;20209;-80
2023/01/07 10:50:30;;;;;;;2.10;1.90;;;19.50;51.30;;;;;;5000402;28;20324;-80
2023/01/07 10:52:59;;;;;;;2.33;2.13;;;19.60;51.20;;;;;;4999266;28;20243;-80
2023/01/07 10:55:34;;;;;;;2.45;2.17;;;19.60;50.90;;;;;;4999244;28;20201;-79
2023/01/07 10:58:02;;;;;;;2.75;2.17;;;19.60;51.20;;;;;;4999290;28;20227;-80
2023/01/07 11:00:29;;;;;;;2.33;1.90;;;19.60;51.30;;;;;;4999225;28;20204;-77
2023/01/07 11:02:58;;;;;;;2.10;1.90;;;19.60;51.30;;;;;;4998938;28;20571;-77
2023/01/07 11:05:25;;;;;;;2.15;1.95;;;19.60;50.80;;;;;;4999033;28;20282;-77
2023/01/07 11:07:55;;;;;;;2.47;2.13;;;19.60;50.70;;;;;;4998730;28;20323;-77
2023/01/07 11:10:24;;;;;;;1.88;1.77;;;19.60;50.70;;;;;;4999363;28;20263;-77
2023/01/07 11:12:53;;;;;;;1.90;1.80;;;19.60;50.80;;;;;;4999238;28;20207;-77
2023/01/07 11:15:22;;;;;;;2.22;1.75;;;19.60;50.80;;;;;;5001103;28;20211;-77
2023/01/07 11:17:51;;;;;;;2.25;2.00;;;19.60;51.20;;;;;;5001187;28;20221;-77
2023/01/07 11:20:41;;;;;;;2.33;2.13;;;19.60;50.70;;;;;;4999539;28;20715;-77
2023/01/07 11:23:18;;;;;;;1.90;1.80;;;19.60;50.50;;;;;;4998872;28;20201;-77
2023/01/07 11:25:45;;;;;;;2.08;1.88;;;19.60;51.10;;;;;;4998918;28;20216;-78
2023/01/07 11:28:17;;;;;;;2.30;2.10;;;19.60;51.70;;;;;;5003576;28;20220;-77
2023/01/07 11:30:44;;;;;;;2.15;1.95;;;19.50;50.90;;;;;;4999961;28;20200;-77
2023/01/07 11:33:19;;;;;;;2.25;2.05;;;19.50;50.60;;;;;;4998605;28;20201;-77
2023/01/07 11:35:51;;;;;;;2.00;1.90;;;19.50;50.70;;;;;;4998803;28;20201;-77
2023/01/07 11:38:26;;;;;;;2.10;1.90;;;19.50;50.70;;;;;;4998633;28;20213;-77
2023/01/07 11:40:56;;;;;;;1.92;1.83;;;19.50;50.90;;;;;;4998450;28;20200;-77
2023/01/07 11:43:24;;;;;;;2.22;1.60;;;19.60;50.90;;;;;;4982477;28;20267;-77
2023/01/07 11:45:52;;;;;;;1.90;1.80;;;19.70;52.10;;;;;;4998977;28;20204;-77
2023/01/07 11:48:22;;;;;;;2.28;2.10;;;19.70;51.60;;;;;;4981963;28;20227;-77
2023/01/07 11:50:55;;;;;;;2.20;2.00;;;19.70;51.50;;;;;;5015805;28;20220;-77
2023/01/07 11:53:30;;;;;;;2.15;1.95;;;19.70;51.10;;;;;;4998133;28;20601;-77
2023/01/07 11:55:58;;;;;;;1.90;1.70;;;19.70;51.50;;;;;;4998222;28;20191;-77
2023/01/07 11:58:28;;;;;;;2.40;2.20;;;19.70;50.70;;;;;;4998040;28;20223;-77
2023/01/07 12:01:03;;;;;;;2.17;2.03;;;19.80;50.40;;;;;;4997884;28;20204;-77
2023/01/07 12:03:30;;;;;;;1.80;1.70;;;19.80;50.20;;;;;;4998034;28;20554;-77
2023/01/07 12:05:57;;;;;;;2.28;2.08;;;19.80;50.50;;;;;;4998189;28;20196;-77
2023/01/07 12:08:25;;;;;;;2.20;2.00;;;19.80;50.00;;;;;;4997752;28;20232;-77
2023/01/07 12:10:56;;;;;;;2.67;2.10;;;19.90;50.10;;;;;;4997676;28;20288;-77
2023/01/07 12:13:26;;;;;;;2.17;2.05;;;19.90;51.20;;;;;;4998180;28;20300;-77
2023/01/07 12:15:56;;;;;;;2.33;2.13;;;19.90;50.80;;;;;;4997732;28;20287;-77
2023/01/07 12:18:46;;;;;;;2.00;1.90;;;19.80;50.40;;;;;;4997843;28;20814;-77
2023/01/07 12:21:27;;;;;;;2.00;1.90;;;19.90;50.10;;;;;;4998356;28;20196;-77
2023/01/07 12:24:13;;;;;;;1.88;1.77;;;19.90;50.00;;;;;;4997904;28;20275;-77
2023/01/07 12:26:43;;;;;;;2.13;1.92;;;19.90;50.70;;;;;;4995830;28;20224;-77
2023/01/07 12:29:15;;;;;;;2.20;2.00;;;20.00;50.10;;;;;;4997643;28;20691;-77
2023/01/07 12:31:49;;;;;;;2.20;2.00;;;20.00;50.20;;;;;;4965973;28;20199;-77
2023/01/07 12:34:22;;;;;;;2.17;2.03;;;20.00;50.10;;;;;;4997079;28;20180;-77
2023/01/07 12:36:52;;;;;;;1.92;1.83;;;20.10;50.20;;;;;;4997412;28;20197;-77
2023/01/07 12:39:22;;;;;;;1.50;1.40;;;20.10;50.70;;;;;;4997253;28;20698;-77
2023/01/07 12:41:53;;;;;;;2.22;2.03;;;20.10;50.70;;;;;;4997530;28;20247;-77
2023/01/07 12:44:21;;;;;;;2.03;1.85;;;20.20;50.20;;;;;;4997291;28;20185;-77
2023/01/07 12:46:55;;;;;;;2.10;2.00;;;20.20;50.90;;;;;;4997162;28;20201;-77
2023/01/07 12:49:24;;;;;;;2.10;2.00;;;20.20;50.90;;;;;;4997162;28;20247;-77
2023/01/07 12:51:54;;;;;;;1.98;1.70;;;20.20;50.40;;;;;;4997227;28;20209;-77
2023/01/07 12:54:25;;;;;;;2.10;1.95;;;20.20;50.30;;;;;;4996852;28;20201;-77
2023/01/07 12:56:55;;;;;;;1.80;1.70;;;20.20;50.60;;;;;;4997158;28;20201;-77
2023/01/07 12:59:24;;;;;;;1.75;1.65;;;20.30;50.40;;;;;;4997039;28;20212;-77
2023/01/07 13:01:54;;;;;;;1.98;1.88;;;20.30;50.40;;;;;;4996905;28;20250;-77